Time;durP1;ratioP1;P1;durP2;ratioP2;P2;SDS_P1;SDS_P2;PMS_P1;PMS_P2;Temp;Humidity;BMP_temperature;BMP_pressure;BME280_temperature;BME280_humidity;BME280_pressure;Samples;Min_cycle;Max_cycle;Signal;HPM_P1;HPM_P2
2022/04/22 00:00:41;;;;;;;17.05;9.38;;;;;;;10.02;48.26;99212.16;4409061;32;33717;-87
2022/04/22 00:03:15;;;;;;;18.23;9.48;;;;;;;10.26;47.54;99207.87;4404148;32;34135;-84
2022/04/22 00:05:48;;;;;;;13.43;8.77;;;;;;;10.22;47.70;99207.47;4410916;32;33617;-83
2022/04/22 00:08:24;;;;;;;15.63;8.80;;;;;;;10.32;47.54;99203.41;4410688;32;35276;-84
2022/04/22 00:13:38;;;;;;;13.77;8.27;;;;;;;10.27;47.58;99206.81;4412824;32;34137;-84
2022/04/22 00:16:06;;;;;;;17.85;8.85;;;;;;;10.26;47.75;99199.66;4397900;32;34318;-84
2022/04/22 00:18:35;;;;;;;14.82;8.43;;;;;;;10.33;47.59;99191.38;4397907;32;33354;-84
2022/04/22 00:21:03;;;;;;;15.05;7.85;;;;;;;10.22;47.85;99185.53;4397848;32;33537;-84
2022/04/22 00:23:31;;;;;;;13.20;8.45;;;;;;;10.21;47.99;99183.84;4397759;32;31840;-84
2022/04/22 00:26:00;;;;;;;13.10;8.30;;;;;;;10.24;47.91;99185.31;4410734;32;33726;-84
2022/04/22 00:28:29;;;;;;;12.82;8.43;;;;;;;10.50;47.33;99187.03;4397846;32;33432;-83
2022/04/22 00:30:56;;;;;;;16.08;8.80;;;;;;;10.26;47.97;99194.16;4397797;32;32534;-84
2022/04/22 00:33:24;;;;;;;12.27;8.02;;;;;;;10.30;47.92;99187.19;4410420;32;33264;-84
2022/04/22 00:35:54;;;;;;;13.23;8.40;;;;;;;10.46;47.53;99178.41;4397733;32;32204;-84
2022/04/22 00:38:24;;;;;;;16.77;8.30;;;;;;;10.44;47.92;99171.44;4410637;32;33609;-84
2022/04/22 00:40:55;;;;;;;14.15;8.30;;;;;;;10.46;47.89;99174.81;4397684;32;33176;-84
2022/04/22 00:43:24;;;;;;;14.07;8.50;;;;;;;10.34;48.26;99162.91;4410642;32;34302;-84
2022/04/22 00:45:54;;;;;;;14.90;8.20;;;;;;;10.49;47.79;99160.66;4397739;32;32715;-85
2022/04/22 00:48:22;;;;;;;13.93;9.02;;;;;;;10.36;48.12;99153.38;4410006;32;32919;-84
2022/04/22 00:50:51;;;;;;;12.77;7.43;;;;;;;10.53;47.56;99153.66;4397716;32;33426;-84
2022/04/22 00:53:21;;;;;;;18.45;9.02;;;;;;;10.40;47.91;99156.53;4398253;32;34243;-84
2022/04/22 00:55:49;;;;;;;16.37;9.15;;;;;;;10.51;47.70;99153.03;4397760;32;34648;-84
2022/04/22 00:58:17;;;;;;;13.70;8.52;;;;;;;10.53;47.69;99146.28;4397815;32;33910;-84
2022/04/22 01:00:45;;;;;;;26.55;14.55;;;;;;;10.55;47.55;99144.16;4410421;32;33618;-85
2022/04/22 01:03:16;;;;;;;72.43;37.83;;;;;;;10.51;47.72;99147.56;4397482;32;33713;-85
2022/04/22 01:11:16;;;;;;;117.95;55.50;;;;;;;10.68;47.50;99139.63;4399383;32;32931;-84
2022/04/22 01:13:45;;;;;;;81.50;41.25;;;;;;;10.72;47.41;99136.22;4410092;32;34019;-84
2022/04/22 01:16:13;;;;;;;80.35;41.63;;;;;;;10.52;48.03;99135.53;4409997;32;33718;-85
2022/04/22 01:18:42;;;;;;;84.22;42.65;;;;;;;10.57;47.96;99131.06;4409388;32;34702;-84
2022/04/22 01:21:09;;;;;;;51.85;27.05;;;;;;;10.65;47.85;99123.63;4410362;32;33876;-84
2022/04/22 01:23:38;;;;;;;81.10;40.60;;;;;;;10.63;48.02;99121.09;4397498;32;31772;-84
2022/04/22 01:26:07;;;;;;;74.45;42.35;;;;;;;10.70;47.95;99115.56;4410147;32;32933;-84
2022/04/22 01:28:35;;;;;;;52.28;30.30;;;;;;;10.71;48.05;99119.97;4409947;32;34294;-84
2022/04/22 01:31:04;;;;;;;49.55;27.35;;;;;;;10.75;48.06;99122.06;4397458;32;33363;-84
2022/04/22 01:33:34;;;;;;;38.40;22.02;;;;;;;10.74;48.31;99108.56;4409756;32;34165;-84
2022/04/22 01:36:05;;;;;;;27.87;18.20;;;;;;;10.71;48.29;99106.25;4408576;32;33931;-84
2022/04/22 01:38:32;;;;;;;30.40;18.08;;;;;;;10.64;48.78;99105.47;4396963;32;33703;-84
2022/04/22 01:41:00;;;;;;;33.55;19.65;;;;;;;10.68;49.02;99106.69;4409695;32;33861;-84
2022/04/22 01:43:28;;;;;;;31.42;19.33;;;;;;;10.84;48.56;99106.12;4409958;32;34315;-84
2022/04/22 01:45:56;;;;;;;26.05;16.62;;;;;;;10.75;48.71;99094.59;4409862;32;33558;-84
2022/04/22 01:48:23;;;;;;;32.88;20.05;;;;;;;10.83;48.61;99091.56;4397190;32;34084;-84
2022/04/22 01:50:51;;;;;;;23.95;15.95;;;;;;;10.74;48.86;99083.84;4397228;32;34128;-84
2022/04/22 01:53:20;;;;;;;24.37;14.95;;;;;;;10.73;48.93;99080.25;4409847;32;33476;-84
2022/04/22 01:55:49;;;;;;;19.48;10.75;;;;;;;10.80;48.87;99075.56;4409723;32;33927;-84
2022/04/22 01:58:17;;;;;;;19.05;11.25;;;;;;;10.63;49.17;99071.69;4409616;32;35425;-84
2022/04/22 02:00:45;;;;;;;32.88;17.95;;;;;;;10.78;48.91;99063.97;4396911;32;33866;-84
2022/04/22 02:03:13;;;;;;;47.95;33.97;;;;;;;10.84;48.90;99059.47;4409316;32;33193;-84
2022/04/22 02:05:42;;;;;;;52.40;36.25;;;;;;;10.82;49.00;99070.69;4396904;32;33100;-84
2022/04/22 02:08:09;;;;;;;33.30;22.35;;;;;;;10.64;49.54;99073.38;4409522;32;34290;-84
2022/04/22 02:10:37;;;;;;;34.67;23.62;;;;;;;10.69;49.18;99059.81;4409454;32;33787;-85
2022/04/22 02:13:08;;;;;;;28.92;21.02;;;;;;;10.75;49.22;99069.91;4409315;32;32808;-84
2022/04/22 02:15:38;;;;;;;26.83;18.80;;;;;;;10.63;49.56;99066.22;4396966;32;33251;-84
2022/04/22 02:18:06;;;;;;;25.83;17.80;;;;;;;10.63;49.60;99065.38;4396791;32;35201;-84
2022/04/22 02:20:34;;;;;;;27.98;15.27;;;;;;;10.62;49.62;99061.78;4409173;32;32332;-83
2022/04/22 02:23:04;;;;;;;18.60;12.95;;;;;;;10.59;49.67;99051.25;4409445;32;34251;-84
2022/04/22 02:25:34;;;;;;;16.90;11.40;;;;;;;10.37;50.21;99050.84;4396582;32;32733;-84
2022/04/22 02:30:48;;;;;;;16.02;9.98;;;;;;;10.42;49.81;99058.38;4399666;32;32235;-84
2022/04/22 02:33:19;;;;;;;14.90;9.65;;;;;;;10.74;48.95;99046.25;4398570;32;32497;-84
2022/04/22 02:35:47;;;;;;;15.15;10.05;;;;;;;10.66;49.18;99057.53;4411162;32;33656;-84
2022/04/22 02:38:18;;;;;;;15.43;9.55;;;;;;;10.67;49.27;99053.72;4398743;32;34208;-84
2022/04/22 02:46:24;;;;;;;105.15;58.87;;;;;;;10.89;48.01;99041.25;4416200;32;33081;-84
2022/04/22 02:48:55;;;;;;;72.87;42.88;;;;;;;10.96;47.99;99041.19;4403169;32;32997;-84
2022/04/22 02:51:28;;;;;;;39.78;24.17;;;;;;;10.86;48.39;99029.91;4416650;32;34048;-83
2022/04/22 02:53:56;;;;;;;27.42;17.10;;;;;;;11.01;48.15;99035.03;4419191;32;31519;-83
2022/04/22 02:56:26;;;;;;;21.37;13.38;;;;;;;11.04;48.26;99027.16;4420477;32;34455;-83
2022/04/22 02:58:54;;;;;;;17.92;11.02;;;;;;;11.11;48.22;99025.16;4407431;32;32212;-84
2022/04/22 03:01:22;;;;;;;16.20;10.13;;;;;;;11.23;48.11;99027.97;4418905;32;35144;-84
2022/04/22 03:03:50;;;;;;;15.80;9.75;;;;;;;11.25;48.12;99014.88;4415963;32;31537;-84
2022/04/22 03:06:24;;;;;;;13.25;8.73;;;;;;;11.28;48.16;99014.41;4414822;32;34782;-84
2022/04/22 03:08:52;;;;;;;12.93;8.70;;;;;;;11.27;48.22;99020.97;4414352;32;34629;-85
2022/04/22 03:11:23;;;;;;;13.77;9.15;;;;;;;11.11;48.27;99013.34;4399914;32;33170;-84
2022/04/22 03:13:54;;;;;;;14.32;8.25;;;;;;;11.24;47.90;99013.19;4411619;32;33369;-84
2022/04/22 03:16:26;;;;;;;14.10;8.35;;;;;;;11.17;47.46;99016.00;4411468;32;31959;-84
2022/04/22 03:18:55;;;;;;;14.75;8.90;;;;;;;11.34;46.70;99009.91;4410952;32;32724;-84
2022/04/22 03:21:31;;;;;;;12.75;8.60;;;;;;;11.38;46.74;99002.87;4411189;32;34662;-84
2022/04/22 03:24:05;;;;;;;14.10;8.98;;;;;;;11.32;47.14;99001.03;4411256;32;33625;-85
2022/04/22 03:26:35;;;;;;;14.77;7.87;;;;;;;11.27;47.36;98996.25;4398316;32;33430;-85
2022/04/22 03:29:06;;;;;;;17.20;8.10;;;;;;;11.44;46.75;98993.72;4410909;32;35313;-84
2022/04/22 03:31:34;;;;;;;12.82;7.80;;;;;;;11.44;45.98;98993.72;4410701;32;33713;-84
2022/04/22 03:34:05;;;;;;;17.42;8.93;;;;;;;11.57;45.25;98993.53;4411250;32;33263;-84
2022/04/22 03:36:34;;;;;;;12.43;7.72;;;;;;;11.42;45.28;98985.69;4411293;32;34425;-84
2022/04/22 03:39:05;;;;;;;13.50;7.85;;;;;;;11.60;44.96;98984.81;4411348;32;34089;-84
2022/04/22 03:41:33;;;;;;;12.68;7.57;;;;;;;11.79;44.11;98988.37;4410256;32;33102;-85
2022/04/22 03:44:01;;;;;;;12.55;7.65;;;;;;;11.84;43.79;98988.50;4411023;32;31864;-85
2022/04/22 03:46:30;;;;;;;15.60;8.38;;;;;;;11.91;44.10;98985.66;4410470;32;33570;-85
2022/04/22 03:49:01;;;;;;;12.75;7.57;;;;;;;11.88;44.44;98992.47;4410959;32;33696;-84
2022/04/22 03:51:32;;;;;;;11.68;7.40;;;;;;;11.95;44.26;98979.44;4410634;32;33813;-84
2022/04/22 03:54:03;;;;;;;12.88;8.00;;;;;;;12.05;43.79;98982.47;4411064;32;31666;-84
2022/04/22 03:59:20;;;;;;;11.32;7.65;;;;;;;12.05;43.72;98987.97;4412643;32;32914;-85
2022/04/22 04:01:48;;;;;;;17.42;10.52;;;;;;;12.11;43.23;98991.69;4398867;32;32592;-85
2022/04/22 04:04:16;;;;;;;17.58;10.45;;;;;;;12.00;42.99;98985.09;4410763;32;33504;-85
2022/04/22 04:06:43;;;;;;;15.50;9.45;;;;;;;12.25;43.04;98987.66;4411198;32;33727;-85
2022/04/22 04:17:38;;;;;;;15.63;9.65;;;;;;;12.35;42.78;98984.31;4412619;32;33187;-83
2022/04/22 04:25:44;;;;;;;12.98;7.95;;;;;;;12.44;42.11;98991.12;4412474;32;32646;-83
2022/04/22 04:28:13;;;;;;;14.80;8.55;;;;;;;12.48;41.90;98976.62;4397772;32;32629;-83
2022/04/22 04:30:45;;;;;;;15.02;8.13;;;;;;;12.49;41.73;98974.72;4397514;32;34732;-84
2022/04/22 04:33:13;;;;;;;13.10;7.68;;;;;;;12.43;41.81;98973.75;4397962;32;32416;-82
2022/04/22 04:35:46;;;;;;;14.50;8.23;;;;;;;12.15;44.19;98990.97;4409904;32;33875;-83
2022/04/22 04:38:15;;;;;;;14.07;8.25;;;;;;;12.27;43.33;98995.66;4410798;32;33884;-83
2022/04/22 04:40:45;;;;;;;21.62;12.30;;;;;;;12.16;42.49;98987.16;4410083;32;32748;-82
2022/04/22 04:43:17;;;;;;;22.77;13.38;;;;;;;12.28;42.19;98986.34;4410178;32;33796;-83
2022/04/22 04:45:46;;;;;;;16.58;10.68;;;;;;;12.48;42.17;98978.56;4410466;32;34180;-83
2022/04/22 04:48:14;;;;;;;14.70;8.20;;;;;;;12.30;42.08;98986.94;4397246;32;32191;-82
2022/04/22 04:50:43;;;;;;;13.27;7.25;;;;;;;12.38;42.14;98978.31;4398057;32;34662;-75
2022/04/22 04:53:13;;;;;;;13.02;7.90;;;;;;;12.41;49.25;98994.34;4397114;32;33776;-82
2022/04/22 04:55:41;;;;;;;12.75;7.93;;;;;;;12.33;41.83;98998.31;4397330;32;32637;-89
2022/04/22 04:58:10;;;;;;;16.27;9.50;;;;;;;12.44;41.77;98986.44;4410545;32;34476;-82
2022/04/22 05:00:41;;;;;;;14.32;9.23;;;;;;;12.38;42.18;98983.81;4410027;32;33026;-81
2022/04/22 05:03:09;;;;;;;14.77;9.68;;;;;;;12.36;42.52;98992.31;4403048;32;32355;-82
2022/04/22 05:05:37;;;;;;;17.33;10.02;;;;;;;12.07;43.39;98996.81;4422622;32;34265;-82
2022/04/22 05:08:07;;;;;;;14.65;9.30;;;;;;;12.27;42.91;98995.66;4416835;32;32217;-81
2022/04/22 05:10:35;;;;;;;14.00;9.13;;;;;;;12.39;42.96;99002.84;4440894;32;34480;-82
2022/04/22 05:13:05;;;;;;;15.20;9.20;;;;;;;12.23;43.52;99005.47;4428193;32;33499;-82
2022/04/22 05:15:43;;;;;;;15.82;9.25;;;;;;;12.32;42.98;99004.06;4427610;32;32797;-82
2022/04/22 05:18:13;;;;;;;15.02;9.15;;;;;;;12.38;42.83;99003.06;4428107;32;33635;-83
2022/04/22 05:20:47;;;;;;;16.45;9.10;;;;;;;12.37;42.96;98999.47;4427964;32;33082;-82
2022/04/22 05:23:15;;;;;;;13.55;8.68;;;;;;;12.14;42.91;99011.31;4426279;32;34194;-82
2022/04/22 05:25:47;;;;;;;18.17;9.38;;;;;;;12.14;43.00;99007.72;4427138;32;32110;-84
2022/04/22 05:28:18;;;;;;;13.85;9.18;;;;;;;12.22;42.77;99012.03;4415061;32;31873;-81
2022/04/22 05:33:35;;;;;;;29.17;18.27;;;;;;;12.14;42.81;98991.22;4428861;32;33241;-83
2022/04/22 05:36:12;;;;;;;38.72;26.05;;;;;;;12.33;42.76;99002.97;4427018;32;31873;-83
2022/04/22 05:38:45;;;;;;;24.73;14.00;;;;;;;12.21;42.69;99011.22;4428234;32;33666;-84
2022/04/22 05:41:42;;;;;;;26.83;20.07;;;;;;;12.36;42.58;99008.81;4428042;32;32757;-82
2022/04/22 05:44:13;;;;;;;17.65;10.48;;;;;;;12.27;42.63;99007.50;4454426;32;33500;-83
2022/04/22 05:46:40;;;;;;;23.62;16.48;;;;;;;12.32;42.62;99004.06;4428038;32;33570;-83
2022/04/22 05:49:09;;;;;;;29.35;23.15;;;;;;;12.13;42.97;98998.62;4402662;32;34853;-83
2022/04/22 05:51:39;;;;;;;29.27;22.20;;;;;;;12.39;42.41;98988.25;4428054;32;32874;-82
2022/04/22 05:54:09;;;;;;;17.83;11.73;;;;;;;12.39;42.41;99005.59;4428067;32;32373;-83
2022/04/22 05:56:38;;;;;;;20.58;11.82;;;;;;;12.35;42.75;98987.87;4427734;32;32149;-82
2022/04/22 05:59:06;;;;;;;20.33;9.88;;;;;;;12.34;42.55;98979.87;4440693;32;34660;-82
2022/04/22 06:01:34;;;;;;;17.10;10.32;;;;;;;12.46;42.54;98986.22;4415212;32;33676;-83
2022/04/22 06:04:07;;;;;;;19.80;11.12;;;;;;;12.12;43.75;98985.13;4428103;32;33654;-83
2022/04/22 06:06:39;;;;;;;18.10;10.60;;;;;;;12.36;44.35;98986.81;4427985;32;33936;-83
2022/04/22 06:12:13;;;;;;;16.02;10.48;;;;;;;12.59;43.29;98977.72;4442217;32;32969;-84
2022/04/22 06:14:46;;;;;;;20.30;10.77;;;;;;;12.47;43.67;98979.63;4427661;32;33478;-83
2022/04/22 06:17:16;;;;;;;17.52;10.77;;;;;;;12.23;43.99;98980.72;4428031;32;34639;-84
2022/04/22 06:19:52;;;;;;;22.02;10.95;;;;;;;12.60;42.80;98975.81;4427641;32;33100;-83
2022/04/22 06:22:27;;;;;;;16.55;10.85;;;;;;;12.66;42.27;98964.69;4427656;32;32968;-84
2022/04/22 06:25:03;;;;;;;24.23;14.18;;;;;;;12.69;42.41;98974.38;4440626;32;33372;-82
2022/04/22 06:27:38;;;;;;;21.73;11.27;;;;;;;12.50;42.60;98968.97;4427909;32;33834;-83
2022/04/22 06:30:13;;;;;;;18.08;11.90;;;;;;;12.41;42.18;98962.16;4428034;32;33106;-84
2022/04/22 06:32:43;;;;;;;17.42;11.32;;;;;;;12.38;43.18;98965.37;4427918;32;35222;-83
2022/04/22 06:35:15;;;;;;;24.08;12.30;;;;;;;12.61;42.20;98964.56;4425940;32;34182;-83
2022/04/22 06:37:52;;;;;;;20.20;10.73;;;;;;;12.44;42.30;98960.84;4427719;32;33181;-83
2022/04/22 06:45:59;;;;;;;20.17;10.80;;;;;;;12.72;41.85;98960.12;4441902;32;33854;-84
2022/04/22 06:48:33;;;;;;;26.35;16.15;;;;;;;12.69;41.84;98955.94;4426767;32;33554;-83
2022/04/22 06:51:20;;;;;;;22.48;11.93;;;;;;;12.41;42.11;98959.41;4428451;32;32864;-84
2022/04/22 06:53:50;;;;;;;18.33;10.75;;;;;;;12.49;41.89;98963.72;4439919;32;34255;-84
2022/04/22 06:56:26;;;;;;;18.10;10.77;;;;;;;12.59;41.78;98965.88;4426952;32;33874;-84
2022/04/22 06:58:58;;;;;;;20.52;10.43;;;;;;;12.70;41.72;98951.28;4433068;32;31920;-84
2022/04/22 07:01:29;;;;;;;16.00;10.40;;;;;;;12.74;41.39;98953.31;4429390;32;33815;-83
2022/04/22 07:04:18;;;;;;;18.70;10.52;;;;;;;12.66;41.41;98953.66;4431436;32;34644;-83
2022/04/22 07:06:47;;;;;;;16.62;10.80;;;;;;;12.47;41.86;98958.47;4426992;32;33715;-83
2022/04/22 07:09:21;;;;;;;17.48;10.60;;;;;;;12.38;41.83;98959.88;4427376;32;33406;-83
2022/04/22 07:11:56;;;;;;;15.48;9.85;;;;;;;12.75;41.31;98963.25;4427167;32;34716;-84
2022/04/22 07:14:27;;;;;;;18.58;11.68;;;;;;;12.94;40.74;98963.94;4414118;32;34249;-83
2022/04/22 07:16:58;;;;;;;26.62;15.10;;;;;;;12.96;40.82;98960.94;4427499;32;32406;-83
2022/04/22 07:19:32;;;;;;;28.55;13.88;;;;;;;12.97;41.09;98962.63;4442009;32;32011;-84
2022/04/22 07:22:00;;;;;;;15.35;10.38;;;;;;;13.04;40.70;98963.28;4427799;32;33548;-84
2022/04/22 07:24:34;;;;;;;16.35;10.35;;;;;;;12.88;42.13;98969.56;4441543;32;34357;-83
2022/04/22 07:27:05;;;;;;;17.12;10.20;;;;;;;12.98;42.83;98967.88;4429194;32;33949;-84
2022/04/22 07:29:36;;;;;;;17.60;10.68;;;;;;;12.81;43.85;98965.03;4441637;32;33585;-83
2022/04/22 07:32:04;;;;;;;17.02;10.68;;;;;;;12.76;44.25;98959.41;4428901;32;33504;-83
2022/04/22 07:34:42;;;;;;;18.50;10.93;;;;;;;12.75;45.01;98963.25;4428615;32;34275;-84
2022/04/22 07:37:13;;;;;;;21.98;10.77;;;;;;;12.42;46.31;98954.75;4441852;32;33942;-84
2022/04/22 07:39:44;;;;;;;20.88;11.52;;;;;;;12.57;47.06;98962.53;4441553;32;33680;-84
2022/04/22 07:42:21;;;;;;;18.42;11.75;;;;;;;12.34;48.06;98946.88;4429062;32;33563;-83
2022/04/22 07:47:44;;;;;;;19.48;11.82;;;;;;;12.72;47.81;98955.47;4443714;32;34826;-84
2022/04/22 07:50:13;;;;;;;17.60;11.93;;;;;;;12.42;48.78;98949.25;4429013;32;34098;-84
2022/04/22 07:52:47;;;;;;;20.48;12.13;;;;;;;12.40;49.92;98951.38;4429001;32;33917;-83
2022/04/22 07:55:24;;;;;;;21.33;11.32;;;;;;;12.50;49.77;98957.97;4441441;32;34596;-84
2022/04/22 07:57:58;;;;;;;20.50;12.43;;;;;;;12.46;50.58;98950.44;4428932;32;33683;-84
2022/04/22 08:00:47;;;;;;;17.87;11.07;;;;;;;12.70;49.67;98960.38;4429419;32;31899;-84
2022/04/22 08:03:18;;;;;;;20.02;12.40;;;;;;;12.68;50.77;98957.03;4429295;32;33730;-85
2022/04/22 08:05:52;;;;;;;22.95;12.75;;;;;;;12.76;50.24;98956.66;4429391;32;35084;-84
2022/04/22 08:08:24;;;;;;;19.50;12.15;;;;;;;12.52;50.91;98955.81;4428543;32;33968;-84
2022/04/22 08:10:57;;;;;;;20.15;12.32;;;;;;;12.31;51.30;98950.09;4428811;32;34049;-84
2022/04/22 08:13:35;;;;;;;20.95;11.85;;;;;;;12.67;50.04;98957.25;4429189;32;34798;-84
2022/04/22 08:16:05;;;;;;;22.40;11.88;;;;;;;12.54;50.99;98952.84;4428480;32;33969;-85
2022/04/22 08:18:45;;;;;;;19.95;12.95;;;;;;;12.67;51.04;98949.84;4429439;32;34986;-84
2022/04/22 08:21:13;;;;;;;20.17;14.18;;;;;;;12.28;53.42;98942.31;4428578;32;31990;-85
2022/04/22 08:23:43;;;;;;;22.00;14.00;;;;;;;12.38;53.41;98948.03;4428637;32;33901;-86
2022/04/22 08:26:13;;;;;;;24.70;14.95;;;;;;;12.60;53.76;98949.13;4428854;32;35395;-86
2022/04/22 08:28:50;;;;;;;22.70;14.18;;;;;;;12.66;54.71;98945.41;4441195;32;32131;-87
2022/04/22 08:31:20;;;;;;;20.05;14.40;;;;;;;12.54;55.38;98945.41;4428476;32;33786;-88
2022/04/22 08:33:55;;;;;;;20.95;14.07;;;;;;;12.63;55.60;98942.31;4428865;32;33731;-87
2022/04/22 08:36:33;;;;;;;25.85;14.65;;;;;;;11.87;57.38;98947.63;4429427;32;35184;-87
2022/04/22 08:39:11;;;;;;;28.80;14.95;;;;;;;12.25;56.99;98940.03;4429359;32;34658;-88
2022/04/22 08:41:52;;;;;;;22.62;14.38;;;;;;;12.19;57.67;98941.84;4428767;32;33366;-86
2022/04/22 08:44:27;;;;;;;23.42;14.68;;;;;;;12.20;57.70;98927.84;4416977;32;34972;-87
2022/04/22 08:49:59;;;;;;;21.98;14.10;;;;;;;12.34;58.33;98919.34;4432723;32;32996;-87
2022/04/22 08:52:35;;;;;;;21.83;14.35;;;;;;;12.42;58.64;98917.06;4429598;32;32824;-87
2022/04/22 08:55:07;;;;;;;23.23;14.60;;;;;;;12.34;59.58;98916.59;4428791;32;32737;-86
2022/04/22 08:57:42;;;;;;;24.90;14.98;;;;;;;12.36;59.70;98920.75;4429885;32;33890;-87
2022/04/22 09:00:19;;;;;;;24.48;14.73;;;;;;;12.43;60.31;98915.97;4442124;32;33348;-87
2022/04/22 09:03:00;;;;;;;23.02;15.80;;;;;;;12.44;59.91;98903.06;4444845;32;31947;-88
2022/04/22 09:05:36;;;;;;;25.05;15.32;;;;;;;12.37;61.37;98902.34;4432172;32;34739;-88
2022/04/22 09:08:09;;;;;;;22.17;16.17;;;;;;;12.10;62.48;98891.00;4430467;32;34572;-87
2022/04/22 09:10:42;;;;;;;28.45;17.20;;;;;;;11.99;63.44;98886.31;4442835;32;34752;-87
2022/04/22 09:13:35;;;;;;;35.88;24.40;;;;;;;12.20;64.66;98889.31;4430372;32;32003;-88
2022/04/22 09:16:11;;;;;;;32.67;20.00;;;;;;;12.20;64.77;98888.50;4429943;32;33036;-89
2022/04/22 09:18:39;;;;;;;24.70;15.25;;;;;;;12.12;64.97;98880.59;4429468;32;35408;-87
2022/04/22 09:21:19;;;;;;;24.08;15.57;;;;;;;12.20;64.61;98878.31;4431474;32;34762;-87
2022/04/22 09:23:48;;;;;;;26.05;17.00;;;;;;;11.94;65.99;98876.03;4430568;32;34230;-88
2022/04/22 09:26:30;;;;;;;24.65;16.10;;;;;;;12.10;65.72;98869.84;4438222;32;33981;-87
2022/04/22 09:29:10;;;;;;;22.73;15.32;;;;;;;12.14;65.69;98850.94;4431128;32;34166;-87
2022/04/22 09:31:49;;;;;;;22.80;14.98;;;;;;;11.79;66.70;98850.91;4443962;32;33409;-87
2022/04/22 09:34:42;;;;;;;27.98;17.55;;;;;;;12.17;65.86;98854.03;4439172;32;34133;-87
2022/04/22 09:43:21;;;;;;;26.37;16.90;;;;;;;11.88;66.92;98839.31;4449937;32;32664;-86
2022/04/22 09:45:55;;;;;;;22.77;15.45;;;;;;;11.72;68.21;98841.91;4422449;32;33453;-88
2022/04/22 09:48:52;;;;;;;24.75;15.80;;;;;;;11.73;67.82;98838.09;4434142;32;33413;-88
2022/04/22 09:51:26;;;;;;;24.25;17.00;;;;;;;11.90;67.21;98830.84;4432762;32;34470;-87
2022/04/22 09:54:07;;;;;;;22.25;15.57;;;;;;;11.94;67.55;98833.94;4433362;32;33358;-87
2022/04/22 09:56:55;;;;;;;23.42;15.52;;;;;;;12.06;67.54;98835.63;4445319;32;33915;-88
2022/04/22 09:59:27;;;;;;;;;;;;;;;11.82;67.94;98839.44;4443689;32;32373;-87
2022/04/22 10:01:55;;;;;;;24.70;15.77;;;;;;;12.05;67.35;98842.22;4430835;32;35644;-88
2022/04/22 10:04:43;;;;;;;24.25;16.23;;;;;;;12.28;66.34;98848.78;4431053;32;32469;-87
2022/04/22 10:07:13;;;;;;;23.23;15.82;;;;;;;12.26;66.10;98843.53;4430905;32;33400;-87
2022/04/22 10:10:03;;;;;;;27.75;17.48;;;;;;;12.39;65.51;98843.25;4431484;32;33153;-87
2022/04/22 10:12:34;;;;;;;22.75;16.05;;;;;;;12.34;66.43;98843.16;4430991;32;34069;-87
2022/04/22 10:15:08;;;;;;;22.00;15.35;;;;;;;12.28;66.04;98830.34;4443133;32;33814;-86
2022/04/22 10:17:39;;;;;;;22.45;15.65;;;;;;;12.23;65.83;98821.16;4430283;32;32028;-87
2022/04/22 10:20:07;;;;;;;26.55;16.52;;;;;;;12.18;66.36;98825.47;4414937;32;33344;-86
2022/04/22 10:22:38;;;;;;;26.98;16.08;;;;;;;12.26;66.90;98818.75;4427705;32;34331;-86
2022/04/22 10:25:16;;;;;;;21.48;15.32;;;;;;;12.40;66.04;98811.87;4441223;32;33859;-88
2022/04/22 10:27:51;;;;;;;20.95;15.10;;;;;;;12.26;66.14;98816.00;4428364;32;33294;-86
2022/04/22 10:30:28;;;;;;;22.70;16.45;;;;;;;12.49;65.55;98812.34;4428878;32;33470;-88
2022/04/22 10:33:08;;;;;;;25.20;16.40;;;;;;;12.49;64.91;98813.19;4428427;32;34036;-87
2022/04/22 10:35:50;;;;;;;22.15;15.77;;;;;;;12.69;64.34;98818.28;4428518;32;34123;-87
2022/04/22 10:38:38;;;;;;;26.80;17.60;;;;;;;12.67;64.25;98803.09;4429134;32;33062;-88
2022/04/22 10:41:13;;;;;;;23.58;15.90;;;;;;;12.63;64.00;98805.50;4428393;32;33999;-86
2022/04/22 10:43:42;;;;;;;23.55;17.27;;;;;;;12.78;63.41;98810.47;4428005;32;34565;-86
2022/04/22 10:49:21;;;;;;;21.20;15.48;;;;;;;12.60;63.89;98797.72;4430130;32;32279;-86
2022/04/22 10:52:10;;;;;;;23.48;15.63;;;;;;;12.04;65.80;98787.44;4428241;32;32356;-87
2022/04/22 10:54:52;;;;;;;21.50;15.63;;;;;;;12.49;64.74;98782.09;4430008;32;33526;-86
2022/04/22 10:57:21;;;;;;;22.70;15.73;;;;;;;12.59;64.45;98786.97;4443080;32;34534;-86
2022/04/22 11:00:04;;;;;;;20.58;14.50;;;;;;;12.16;66.17;98780.84;4429794;32;32013;-87
2022/04/22 11:02:40;;;;;;;21.98;16.05;;;;;;;12.39;65.23;98784.62;4443098;32;34525;-87
2022/04/22 11:05:23;;;;;;;26.02;16.08;;;;;;;12.39;64.54;98781.87;4430391;32;32915;-85
2022/04/22 11:08:01;;;;;;;19.98;13.52;;;;;;;12.38;64.63;98782.94;4443140;32;34068;-86
2022/04/22 11:10:46;;;;;;;19.27;13.48;;;;;;;12.22;65.17;98773.56;4430775;32;33455;-87
2022/04/22 11:13:38;;;;;;;33.10;22.37;;;;;;;12.09;65.13;98774.66;4429767;32;32252;-86
2022/04/22 11:16:07;;;;;;;20.33;13.15;;;;;;;12.28;64.59;98782.75;4442721;32;35477;-86
2022/04/22 11:18:43;;;;;;;19.62;13.68;;;;;;;12.42;64.10;98767.63;4442957;32;34453;-86
2022/04/22 11:21:23;;;;;;;18.52;13.00;;;;;;;12.43;64.66;98770.12;4431084;32;34188;-86
2022/04/22 11:23:57;;;;;;;19.67;13.70;;;;;;;12.35;64.55;98770.50;4442226;32;32245;-87
2022/04/22 11:26:29;;;;;;;18.55;13.95;;;;;;;12.59;63.66;98771.28;4429981;32;34448;-87
2022/04/22 11:29:01;;;;;;;17.60;12.77;;;;;;;12.61;62.38;98762.78;4430722;32;34629;-86
2022/04/22 11:32:22;;;;;;;19.12;13.93;;;;;;;12.89;60.75;98753.69;4431721;32;31740;-87
2022/04/22 11:35:13;;;;;;;18.87;13.77;;;;;;;12.49;62.57;98763.66;4429914;32;32221;-86
2022/04/22 11:37:45;;;;;;;18.70;13.20;;;;;;;12.93;61.24;98757.63;4429184;32;32873;-87
2022/04/22 11:40:21;;;;;;;17.45;12.68;;;;;;;13.06;59.46;98760.88;4430930;32;34224;-86
2022/04/22 11:42:54;;;;;;;18.45;12.40;;;;;;;13.26;59.62;98763.19;4430679;32;33312;-86
2022/04/22 11:45:32;;;;;;;17.35;12.80;;;;;;;13.38;59.19;98750.19;4431689;32;32942;-86
2022/04/22 11:48:12;;;;;;;18.67;12.43;;;;;;;13.45;58.52;98750.84;4429865;32;32910;-86
2022/04/22 11:50:44;;;;;;;17.58;12.70;;;;;;;13.56;57.59;98756.53;4430366;32;34373;-86
2022/04/22 11:53:19;;;;;;;17.10;12.65;;;;;;;13.75;57.17;98752.41;4430066;32;32041;-87
2022/04/22 11:55:54;;;;;;;17.55;11.95;;;;;;;14.10;56.49;98741.91;4430583;32;33860;-86
2022/04/22 11:58:27;;;;;;;19.02;11.27;;;;;;;14.24;54.85;98730.50;4417906;32;32832;-87
2022/04/22 12:06:48;;;;;;;16.77;10.52;;;;;;;13.98;53.60;98710.84;4445748;32;32232;-87
2022/04/22 12:09:20;;;;;;;13.65;9.70;;;;;;;13.61;52.67;98710.59;4442796;32;34121;-87
2022/04/22 12:11:56;;;;;;;14.55;10.73;;;;;;;14.14;51.70;98709.12;4441169;32;32521;-87
2022/04/22 12:14:29;;;;;;;17.77;10.30;;;;;;;14.27;52.10;98705.16;4428237;32;33551;-86
2022/04/22 12:17:04;;;;;;;14.40;10.02;;;;;;;14.32;51.87;98696.91;4429139;32;32340;-87
2022/04/22 12:19:32;;;;;;;14.45;9.20;;;;;;;14.68;49.92;98690.72;4442026;32;34115;-87
2022/04/22 12:22:09;;;;;;;15.60;9.48;;;;;;;14.72;49.05;98691.03;4428677;32;32494;-85
2022/04/22 12:25:13;;;;;;;12.63;9.23;;;;;;;14.32;49.42;98672.88;4429107;32;31855;-86
2022/04/22 12:28:07;;;;;;;14.50;9.98;;;;;;;14.48;48.27;98669.25;4441444;32;33836;-87
2022/04/22 12:30:39;;;;;;;17.35;9.43;;;;;;;14.40;47.49;98675.19;4428439;32;34657;-86
2022/04/22 12:33:20;;;;;;;14.45;8.68;;;;;;;14.24;48.42;98673.38;4428422;32;33908;-86
2022/04/22 12:35:53;;;;;;;13.18;9.85;;;;;;;14.38;48.42;98669.09;4428455;32;31868;-86
2022/04/22 12:38:25;;;;;;;14.57;10.23;;;;;;;14.52;46.07;98672.31;4429653;32;33232;-85
2022/04/22 12:41:07;;;;;;;14.40;10.27;;;;;;;14.77;46.42;98675.34;4428443;32;34177;-86
2022/04/22 12:43:39;;;;;;;14.43;10.23;;;;;;;15.06;45.93;98672.28;4441270;32;33018;-85
2022/04/22 12:52:28;;;;;;;10.85;7.85;;;;;;;14.69;45.09;98656.50;4443423;32;35191;-85
2022/04/22 12:55:05;;;;;;;11.95;8.13;;;;;;;14.44;44.47;98658.97;4428640;32;33478;-86
2022/04/22 12:57:36;;;;;;;11.52;8.20;;;;;;;14.46;44.40;98652.09;4428826;32;33400;-86